Time;durP1;ratioP1;P1;durP2;ratioP2;P2;SDS_P1;SDS_P2;PMS_P1;PMS_P2;Temp;Humidity;BMP_temperature;BMP_pressure;BME280_temperature;BME280_humidity;BME280_pressure;Samples;Min_cycle;Max_cycle;Signal;HPM_P1;HPM_P2
2023/10/05 00:02:10;;;;;;;;;;;;;;;28.94;70.76;100876.81;5012493;28;69403;-38
2023/10/05 00:04:42;;;;;;;;;;;;;;;29.00;70.56;100879.72;5008865;28;66131;-38
2023/10/05 00:07:23;;;;;;;;;;;;;;;29.06;70.88;100892.41;5017216;28;68806;-38
2023/10/05 00:09:53;;;;;;;;;;;;;;;29.12;70.75;100895.13;5007658;28;67476;-39
2023/10/05 00:12:23;;;;;;;;;;;;;;;29.15;70.73;100893.88;4988803;28;70122;-38
2023/10/05 00:15:13;;;;;;;;;;;;;;;29.20;71.08;100896.81;5019113;28;66483;-39
2023/10/05 00:17:43;;;;;;;;;;;;;;;29.23;71.34;100909.91;5019547;28;70418;-38
2023/10/05 00:20:39;;;;;;;;;;;;;;;29.25;71.25;100905.09;5022158;28;66094;-38
2023/10/05 00:23:09;;;;;;;;;;;;;;;29.29;71.67;100905.53;5019507;28;72724;-39
2023/10/05 00:25:39;;;;;;;;;;;;;;;29.31;71.77;100909.69;5030394;28;66344;-38
2023/10/05 00:28:11;;;;;;;;;;;;;;;29.35;72.36;100919.00;5018364;28;69730;-38
2023/10/05 00:30:40;;;;;;;;;;;;;;;29.39;73.88;100922.97;5009059;28;66146;-40
2023/10/05 00:33:10;;;;;;;;;;;;;;;29.42;73.05;100926.28;5020156;28;69558;-39
2023/10/05 00:35:40;;;;;;;;;;;;;;;29.44;73.16;100933.13;5015757;28;66524;-40
2023/10/05 00:38:14;;;;;;;;;;;;;;;29.47;74.55;100934.59;5002497;28;70805;-40
2023/10/05 00:40:58;;;;;;;;;;;;;;;29.49;73.99;100937.94;5010130;28;66047;-38
2023/10/05 00:43:28;;;;;;;;;;;;;;;29.51;74.43;100952.06;5001493;28;70771;-37
2023/10/05 00:45:58;;;;;;;;;;;;;;;29.52;74.32;100948.31;5018183;28;66333;-38
2023/10/05 00:49:30;;;;;;;;;;;;;;;29.55;75.80;100953.31;5020821;28;70077;-38
2023/10/05 00:51:31;;;;;;;;;;;;;;;29.57;74.91;100956.63;5005636;28;66658;-39
2023/10/05 00:54:04;;;;;;;;;;;;;;;29.59;83.63;100962.66;5031159;28;70774;-40
2023/10/05 00:56:35;;;;;;;;;;;;;;;29.57;83.91;100956.63;5014671;28;66480;-40
2023/10/05 00:59:09;;;;;;;;;;;;;;;29.55;80.69;100956.81;4987877;28;69841;-38
2023/10/05 01:04:34;;;;;;;;;;;;;;;29.58;78.85;100963.69;5016094;28;69741;-38
2023/10/05 01:07:18;;;;;;;;;;;;;;;29.60;77.79;100961.63;5020060;28;66971;-38
2023/10/05 01:12:48;;;;;;;;;;;;;;;29.64;76.84;100962.88;4992662;28;66934;-37
2023/10/05 01:15:19;;;;;;;;;;;;;;;29.67;76.17;100967.03;5015487;28;70355;-38
2023/10/05 01:17:51;;;;;;;;;;;;;;;29.66;75.88;100960.81;5020073;28;66945;-38
2023/10/05 01:20:22;;;;;;;;;;;;;;;29.70;76.22;100958.50;5018233;28;70343;-38
2023/10/05 01:22:58;;;;;;;;;;;;;;;29.71;76.05;100955.59;5018272;28;67328;-38
2023/10/05 01:25:36;;;;;;;;;;;;;;;29.73;75.33;100956.22;5018619;28;70352;-38
2023/10/05 01:28:07;;;;;;;;;;;;;;;29.75;75.28;100959.53;5015607;28;66082;-38
2023/10/05 01:30:38;;;;;;;;;;;;;;;29.76;75.52;100961.22;5008131;28;69113;-38
2023/10/05 01:33:08;;;;;;;;;;;;;;;29.77;75.34;100962.88;5002609;28;66463;-38
2023/10/05 01:35:41;;;;;;;;;;;;;;;29.78;75.35;100964.53;5018393;28;70331;-38
2023/10/05 01:38:11;;;;;;;;;;;;;;;29.81;74.85;100960.56;5019168;28;66067;-41
2023/10/05 01:40:47;;;;;;;;;;;;;;;29.82;75.04;100965.78;5026699;28;69852;-40
2023/10/05 01:43:18;;;;;;;;;;;;;;;29.82;75.30;100965.78;5028136;28;65957;-37
2023/10/05 01:45:48;;;;;;;;;;;;;;;29.84;75.08;100969.09;5023806;28;70135;-38
2023/10/05 01:48:25;;;;;;;;;;;;;;;29.88;74.92;100979.50;5021188;28;66849;-37
2023/10/05 01:51:06;;;;;;;;;;;;;;;29.89;74.52;100976.56;5001913;28;70712;-38
2023/10/05 01:53:36;;;;;;;;;;;;;;;29.91;74.71;100973.66;4988125;28;65805;-39
2023/10/05 01:56:11;;;;;;;;;;;;;;;29.91;74.40;100974.47;5012839;28;70858;-38
2023/10/05 01:58:43;;;;;;;;;;;;;;;29.93;74.44;100977.81;5002925;28;65927;-38
2023/10/05 02:01:13;;;;;;;;;;;;;;;29.94;74.36;100974.06;5016577;28;68485;-38
2023/10/05 02:03:43;;;;;;;;;;;;;;;29.96;74.59;100974.69;5022159;28;65809;-39
2023/10/05 02:06:15;;;;;;;;;;;;;;;29.97;74.71;100973.63;5018395;28;70396;-38
2023/10/05 02:08:45;;;;;;;;;;;;;;;29.99;74.55;100970.72;5016816;28;66537;-38
2023/10/05 02:11:17;;;;;;;;;;;;;;;30.00;74.73;100972.38;5003172;28;70963;-38
2023/10/05 02:13:48;;;;;;;;;;;;;;;30.02;74.12;100970.31;5021039;28;66176;-38
2023/10/05 02:16:21;;;;;;;;;;;;;;;30.04;74.48;100962.81;5016847;28;70399;-38
2023/10/05 02:18:53;;;;;;;;;;;;;;;30.05;74.52;100961.75;5013120;28;65962;-38
2023/10/05 02:24:25;;;;;;;;;;;;;;;30.09;74.45;100960.31;4992611;28;66323;-38
2023/10/05 02:27:09;;;;;;;;;;;;;;;30.11;74.15;100963.59;5014352;28;70543;-38
2023/10/05 02:29:43;;;;;;;;;;;;;;;30.10;74.24;100964.66;5011065;28;66683;-38
2023/10/05 02:32:21;;;;;;;;;;;;;;;30.15;73.62;100958.63;5017694;28;69391;-38
2023/10/05 02:35:34;;;;;;;;;;;;;;;30.16;73.92;100965.69;5008181;28;65770;-38
2023/10/05 02:37:47;;;;;;;;;;;;;;;30.19;73.92;100971.50;5012726;28;70398;-39
2023/10/05 02:40:19;;;;;;;;;;;;;;;30.21;73.62;100969.41;5008409;28;66396;-38
2023/10/05 02:42:51;;;;;;;;;;;;;;;30.23;73.89;100961.94;5013566;28;69919;-42
2023/10/05 02:45:21;;;;;;;;;;;;;;;30.25;73.49;100970.66;5016256;28;66997;-38
2023/10/05 02:47:51;;;;;;;;;;;;;;;30.27;73.82;100968.56;5000930;28;70223;-37
2023/10/05 02:50:21;;;;;;;;;;;;;;;30.31;73.30;100968.97;5018831;28;65565;-37
2023/10/05 02:52:52;;;;;;;;;;;;;;;30.32;73.63;100970.66;5001096;28;68704;-38
2023/10/05 02:55:23;;;;;;;;;;;;;;;30.34;73.21;100970.41;5021517;28;66228;-38
2023/10/05 02:57:53;;;;;;;;;;;;;;;30.35;73.20;100964.81;5011200;28;69843;-38
2023/10/05 03:00:27;;;;;;;;;;;;;;;30.38;72.92;100971.66;5005314;28;66556;-38
2023/10/05 03:03:01;;;;;;;;;;;;;;;30.39;73.15;100971.44;4999671;28;68955;-38
2023/10/05 03:05:35;;;;;;;;;;;;;;;30.42;72.88;100972.88;5013044;28;66250;-38
2023/10/05 03:08:05;;;;;;;;;;;;;;;30.44;72.95;100968.09;5011141;28;70015;-38
2023/10/05 03:10:35;;;;;;;;;;;;;;;30.47;72.97;100973.91;5016206;28;66884;-38
2023/10/05 03:13:05;;;;;;;;;;;;;;;30.50;72.82;100969.94;5010060;28;69584;-40
2023/10/05 03:15:37;;;;;;;;;;;;;;;30.51;72.65;100955.38;5012689;28;65461;-38
2023/10/05 03:18:07;;;;;;;;;;;;;;;30.55;73.04;100953.88;4991859;28;70594;-39
2023/10/05 03:20:37;;;;;;;;;;;;;;;30.56;72.71;100946.59;5017484;28;66187;-38
2023/10/05 03:23:07;;;;;;;;;;;;;;;30.59;72.58;100943.44;5012147;28;70895;-39
2023/10/05 03:25:37;;;;;;;;;;;;;;;30.60;72.32;100948.66;4987511;28;65918;-38
2023/10/05 03:28:07;;;;;;;;;;;;;;;30.63;72.40;100950.91;5015187;28;69852;-38
2023/10/05 03:30:37;;;;;;;;;;;;;;;30.65;72.64;100953.44;5000988;28;66106;-39
2023/10/05 03:33:07;;;;;;;;;;;;;;;30.66;72.27;100945.06;5014274;28;69810;-38
2023/10/05 03:35:37;;;;;;;;;;;;;;;30.69;72.42;100941.91;5012962;28;66671;-38
2023/10/05 03:38:08;;;;;;;;;;;;;;;30.72;72.10;100930.66;5021864;28;69457;-39
2023/10/05 03:40:43;;;;;;;;;;;;;;;30.73;72.27;100935.03;4995186;28;66302;-39
2023/10/05 03:43:13;;;;;;;;;;;;;;;30.76;72.33;100928.34;5010634;28;70581;-37
2023/10/05 03:45:44;;;;;;;;;;;;;;;30.78;71.87;100922.72;5020278;28;66162;-38
2023/10/05 03:48:14;;;;;;;;;;;;;;;30.81;72.11;100922.28;5008793;28;69747;-38
2023/10/05 03:50:43;;;;;;;;;;;;;;;30.81;71.92;100914.19;5017161;28;65798;-38
2023/10/05 03:53:15;;;;;;;;;;;;;;;30.84;71.91;100919.16;5016001;28;69794;-38
2023/10/05 03:55:47;;;;;;;;;;;;;;;30.86;71.78;100917.06;5015332;28;65852;-38
2023/10/05 03:58:17;;;;;;;;;;;;;;;30.88;72.05;100909.56;5018095;28;69190;-38
2023/10/05 04:00:49;;;;;;;;;;;;;;;30.88;71.84;100904.97;5017941;28;65496;-38
2023/10/05 04:03:24;;;;;;;;;;;;;;;30.90;72.24;100893.91;5016130;28;70608;-39
2023/10/05 04:05:54;;;;;;;;;;;;;;;30.92;72.00;100891.78;5001483;28;65508;-38
2023/10/05 04:08:27;;;;;;;;;;;;;;;30.93;72.06;100888.06;5013796;28;69740;-38
2023/10/05 04:10:59;;;;;;;;;;;;;;;30.95;71.58;100891.34;5013933;28;66631;-38
2023/10/05 04:13:32;;;;;;;;;;;;;;;30.97;71.54;100886.56;5014665;28;69845;-39
2023/10/05 04:16:06;;;;;;;;;;;;;;;30.98;72.04;100879.25;5010892;28;67255;-39
2023/10/05 04:18:38;;;;;;;;;;;;;;;31.00;71.96;100875.28;5019716;28;70330;-39
2023/10/05 04:21:10;;;;;;;;;;;;;;;31.02;71.63;100869.66;5015217;28;65449;-39
2023/10/05 04:23:40;;;;;;;;;;;;;;;31.02;71.67;100866.94;5019934;28;70674;-38
2023/10/05 04:26:10;;;;;;;;;;;;;;;31.03;71.24;100866.69;5019462;28;65037;-37
2023/10/05 04:28:51;;;;;;;;;;;;;;;31.05;71.20;100861.91;5021793;28;70560;-39
2023/10/05 04:31:24;;;;;;;;;;;;;;;31.06;71.39;100852.72;5015719;28;65935;-39
2023/10/05 04:33:55;;;;;;;;;;;;;;;31.07;71.63;100862.50;5015056;28;70842;-39
2023/10/05 04:36:26;;;;;;;;;;;;;;;31.09;71.63;100852.28;5017713;28;66870;-38
2023/10/05 04:38:55;;;;;;;;;;;;;;;31.10;71.20;100848.50;5018170;28;69156;-38
2023/10/05 04:41:31;;;;;;;;;;;;;;;31.12;71.26;100850.97;5015198;28;66515;-38
2023/10/05 04:44:01;;;;;;;;;;;;;;;31.13;71.16;100849.94;5017960;28;69759;-38
2023/10/05 04:46:31;;;;;;;;;;;;;;;31.14;70.99;100841.59;5012132;28;65447;-38
2023/10/05 04:49:09;;;;;;;;;;;;;;;31.16;71.08;100841.38;5018266;28;69702;-39
2023/10/05 04:51:41;;;;;;;;;;;;;;;31.18;70.98;100828.44;5014394;28;66084;-39
2023/10/05 04:54:12;;;;;;;;;;;;;;;31.19;71.11;100823.84;5017256;28;69767;-38
2023/10/05 05:07:13;;;;;;;;;;;;;;;31.25;70.68;100795.84;5021041;28;66977;-38
2023/10/05 05:09:43;;;;;;;;;;;;;;;31.27;70.70;100789.16;5019386;28;69501;-38
2023/10/05 05:12:16;;;;;;;;;;;;;;;31.29;70.32;100787.06;5015156;28;66000;-38
2023/10/05 05:14:53;;;;;;;;;;;;;;;31.30;70.22;100787.88;5025271;28;69736;-38
2023/10/05 05:17:23;;;;;;;;;;;;;;;31.32;70.36;100780.34;5011777;28;66396;-37
2023/10/05 05:19:53;;;;;;;;;;;;;;;31.33;70.42;100776.56;5012143;28;70602;-38
2023/10/05 05:22:23;;;;;;;;;;;;;;;31.35;70.16;100774.47;5018070;28;66228;-39
2023/10/05 05:24:53;;;;;;;;;;;;;;;31.36;70.42;100766.13;5018071;28;69960;-39
2023/10/05 05:27:24;;;;;;;;;;;;;;;31.37;70.37;100766.97;5016432;28;66446;-39
2023/10/05 05:29:53;;;;;;;;;;;;;;;31.39;70.28;100759.44;5013229;28;70152;-39
2023/10/05 05:32:23;;;;;;;;;;;;;;;31.40;70.24;100739.44;5026254;28;65588;-37
2023/10/05 05:34:53;;;;;;;;;;;;;;;31.41;70.34;100746.50;5016306;28;70287;-38
2023/10/05 05:37:28;;;;;;;;;;;;;;;31.42;70.24;100737.28;5010385;28;66826;-38
2023/10/05 05:40:12;;;;;;;;;;;;;;;31.43;69.93;100730.84;5017182;28;69326;-38
2023/10/05 05:42:45;;;;;;;;;;;;;;;31.45;70.35;100726.00;5008026;28;66631;-39
2023/10/05 05:45:21;;;;;;;;;;;;;;;31.45;70.14;100715.16;5014105;28;69766;-39
2023/10/05 05:47:51;;;;;;;;;;;;;;;31.46;69.90;100711.41;5012804;28;66568;-38
2023/10/05 05:50:23;;;;;;;;;;;;;;;31.49;69.97;100716.34;5010427;28;70467;-38
2023/10/05 05:52:56;;;;;;;;;;;;;;;31.51;70.21;100711.53;5013918;28;66996;-38
2023/10/05 05:55:26;;;;;;;;;;;;;;;31.52;70.03;100710.47;5010675;28;69802;-38
2023/10/05 05:57:56;;;;;;;;;;;;;;;31.53;69.79;100712.13;5012211;28;67052;-37
2023/10/05 06:00:28;;;;;;;;;;;;;;;31.53;69.96;100706.69;5014283;28;69775;-38
2023/10/05 06:02:58;;;;;;;;;;;;;;;31.55;69.70;100711.91;5024234;28;66717;-39
2023/10/05 06:05:28;;;;;;;;;;;;;;;31.56;69.74;100721.69;5010737;28;69118;-37
2023/10/05 06:08:01;;;;;;;;;;;;;;;31.57;69.95;100724.19;5012289;28;66114;-38
2023/10/05 06:10:34;;;;;;;;;;;;;;;31.59;69.93;100730.22;4997143;28;70271;-39
2023/10/05 06:13:11;;;;;;;;;;;;;;;31.61;70.01;100738.09;5016023;28;65972;-38
2023/10/05 06:15:44;;;;;;;;;;;;;;;31.64;69.74;100739.53;5022734;28;70617;-39
2023/10/05 06:18:14;;;;;;;;;;;;;;;31.64;69.73;100724.09;5013976;28;66781;-39
2023/10/05 06:20:46;;;;;;;;;;;;;;;31.65;70.04;100719.47;5026072;28;70581;-39
2023/10/05 06:23:16;;;;;;;;;;;;;;;31.65;69.85;100724.91;5022591;28;66206;-41
2023/10/05 06:25:48;;;;;;;;;;;;;;;31.65;70.05;100714.06;5019403;28;70156;-38
2023/10/05 06:28:17;;;;;;;;;;;;;;;31.65;70.18;100704.06;5014707;28;64737;-39
2023/10/05 06:30:49;;;;;;;;;;;;;;;31.64;70.11;100686.13;5013546;28;70680;-38
2023/10/05 06:33:20;;;;;;;;;;;;;;;31.63;70.26;100686.38;5003606;28;65742;-38
2023/10/05 06:35:50;;;;;;;;;;;;;;;31.61;70.43;100671.13;5005055;28;70429;-40
2023/10/05 06:38:20;;;;;;;;;;;;;;;31.61;70.34;100673.84;5008694;28;66565;-38
2023/10/05 06:40:50;;;;;;;;;;;;;;;31.61;70.59;100673.84;5011623;28;70233;-38
2023/10/05 06:43:21;;;;;;;;;;;;;;;31.60;70.40;100674.91;5011968;28;66531;-38
2023/10/05 06:45:51;;;;;;;;;;;;;;;31.61;70.30;100676.56;5010803;28;70081;-38
2023/10/05 06:48:20;;;;;;;;;;;;;;;31.60;70.65;100674.91;5010176;28;66311;-39
2023/10/05 06:50:52;;;;;;;;;;;;;;;31.60;70.51;100676.81;5014027;28;70060;-38
2023/10/05 06:53:22;;;;;;;;;;;;;;;31.57;70.43;100669.97;5006603;28;66933;-39
2023/10/05 06:55:52;;;;;;;;;;;;;;;31.57;70.59;100659.13;5012555;28;69523;-38
2023/10/05 06:58:22;;;;;;;;;;;;;;;31.55;70.49;100655.78;5007017;28;66092;-41
2023/10/05 07:00:52;;;;;;;;;;;;;;;31.54;70.71;100648.72;5004133;28;70029;-39
2023/10/05 07:03:22;;;;;;;;;;;;;;;31.53;70.52;100640.81;5010415;28;66075;-38
2023/10/05 07:05:54;;;;;;;;;;;;;;;31.51;70.47;100630.22;5010414;28;70421;-40
2023/10/05 07:08:26;;;;;;;;;;;;;;;31.50;70.92;100625.84;4980771;28;66445;-38
2023/10/05 07:10:56;;;;;;;;;;;;;;;31.52;70.69;100628.31;5020617;28;69669;-39
2023/10/05 07:13:28;;;;;;;;;;;;;;;31.51;70.67;100626.66;5015826;28;66715;-40
2023/10/05 07:15:59;;;;;;;;;;;;;;;31.52;70.73;100618.31;5015130;28;70693;-39
2023/10/05 07:18:28;;;;;;;;;;;;;;;31.52;70.75;100606.63;5017253;28;65752;-39
2023/10/05 07:20:58;;;;;;;;;;;;;;;31.52;70.75;100593.09;5004815;28;70270;-39
2023/10/05 07:23:29;;;;;;;;;;;;;;;31.51;70.72;100589.56;5017775;28;67335;-37
2023/10/05 07:25:59;;;;;;;;;;;;;;;31.51;70.55;100588.69;5013751;28;70657;-38
2023/10/05 07:28:28;;;;;;;;;;;;;;;31.50;70.59;100585.16;5018051;28;66919;-38
2023/10/05 07:30:59;;;;;;;;;;;;;;;31.52;70.54;100582.25;5014769;28;69979;-39
2023/10/05 07:33:29;;;;;;;;;;;;;;;31.52;70.78;100580.34;5019111;28;67873;-38
2023/10/05 07:36:00;;;;;;;;;;;;;;;31.54;70.67;100588.25;5013239;28;70415;-38
2023/10/05 07:38:29;;;;;;;;;;;;;;;31.55;70.48;100585.31;5018144;28;66243;-38
2023/10/05 07:41:03;;;;;;;;;;;;;;;31.56;70.48;100583.41;5019709;28;70484;-39
2023/10/05 07:43:34;;;;;;;;;;;;;;;31.55;70.64;100579.88;5003912;28;66669;-39
2023/10/05 07:46:06;;;;;;;;;;;;;;;31.56;70.62;100578.81;5016401;28;69992;-37
2023/10/05 07:48:36;;;;;;;;;;;;;;;31.58;70.79;100589.44;5008533;28;65647;-38
2023/10/05 07:51:06;;;;;;;;;;;;;;;31.57;70.56;100577.78;5015934;28;70418;-37
2023/10/05 07:53:36;;;;;;;;;;;;;;;31.58;70.31;100578.59;5000906;28;65661;-39
2023/10/05 07:56:06;;;;;;;;;;;;;;;31.59;70.51;100574.81;5025616;28;69439;-37
2023/10/05 07:58:36;;;;;;;;;;;;;;;31.59;70.42;100563.97;5010872;28;66648;-38
2023/10/05 08:01:06;;;;;;;;;;;;;;;31.60;70.75;100560.22;5016510;28;68920;-37
2023/10/05 08:03:40;;;;;;;;;;;;;;;31.60;70.46;100555.63;5019229;28;66952;-37
2023/10/05 08:06:14;;;;;;;;;;;;;;;31.63;70.61;100534.53;5019744;28;70680;-38
2023/10/05 08:08:45;;;;;;;;;;;;;;;31.63;70.43;100529.91;5015448;28;66630;-38
2023/10/05 08:11:20;;;;;;;;;;;;;;;31.67;70.57;100527.56;5016642;28;70358;-37
2023/10/05 08:13:52;;;;;;;;;;;;;;;31.69;70.35;100530.88;5018358;28;65509;-38
2023/10/05 08:16:22;;;;;;;;;;;;;;;31.44;70.30;100474.97;5016794;28;70703;-38
2023/10/05 08:18:52;;;;;;;;;;;;;;;31.76;70.34;100520.72;5022684;28;64963;-39
2023/10/05 08:21:22;;;;;;;;;;;;;;;31.79;70.33;100520.28;5021587;28;69045;-39
2023/10/05 08:23:52;;;;;;;;;;;;;;;31.81;70.22;100524.38;5030434;28;66849;-39
2023/10/05 08:26:22;;;;;;;;;;;;;;;31.87;70.00;100532.63;5016184;28;69464;-39
2023/10/05 08:28:52;;;;;;;;;;;;;;;31.89;70.15;100534.06;5028950;28;66631;-38
2023/10/05 08:31:25;;;;;;;;;;;;;;;31.92;70.13;100533.63;5018741;28;69765;-38
2023/10/05 08:33:55;;;;;;;;;;;;;;;31.95;69.99;100535.84;5017629;28;66906;-39
2023/10/05 08:36:25;;;;;;;;;;;;;;;31.99;70.12;100526.19;5023442;28;69935;-38
2023/10/05 08:38:55;;;;;;;;;;;;;;;32.02;70.01;100531.16;5022214;28;66686;-38
2023/10/05 08:41:32;;;;;;;;;;;;;;;32.07;69.95;100535.03;5019826;28;69154;-39
2023/10/05 08:44:06;;;;;;;;;;;;;;;32.11;69.80;100537.03;5016559;28;66321;-38
2023/10/05 08:46:46;;;;;;;;;;;;;;;32.16;70.01;100544.47;5020801;28;70467;-44
2023/10/05 08:49:16;;;;;;;;;;;;;;;32.20;69.76;100559.22;5015499;28;66344;-37
2023/10/05 08:51:46;;;;;;;;;;;;;;;32.23;69.83;100558.72;5029425;28;69258;-38
2023/10/05 08:54:33;;;;;;;;;;;;;;;32.26;69.58;100552.81;5020661;28;66930;-39
2023/10/05 08:57:09;;;;;;;;;;;;;;;32.29;69.47;100563.22;5021408;28;69800;-38
2023/10/05 08:59:45;;;;;;;;;;;;;;;32.32;69.27;100561.91;5021506;28;66979;-39
2023/10/05 09:02:21;;;;;;;;;;;;;;;32.33;69.28;100558.97;5017175;28;70208;-38
2023/10/05 09:04:57;;;;;;;;;;;;;;;32.36;69.24;100563.09;5020869;28;66981;-39
2023/10/05 09:07:35;;;;;;;;;;;;;;;32.36;69.00;100561.19;5020027;28;70322;-40
2023/10/05 09:10:08;;;;;;;;;;;;;;;31.96;71.75;100566.53;5017445;28;66338;-36
2023/10/05 09:12:40;;;;;;;;;;;;;;;31.81;73.12;100569.66;5009372;28;70598;-38
2023/10/05 09:20:39;;;;;;;;;;;;;;;31.63;74.80;100575.19;5021433;28;65408;-38
2023/10/05 09:23:24;;;;;;;;;;;;;;;31.59;75.12;100570.25;5014514;28;69900;-39
2023/10/05 09:25:57;;;;;;;;;;;;;;;31.57;75.18;100576.94;5007083;28;66828;-37
2023/10/05 09:28:51;;;;;;;;;;;;;;;31.58;75.24;100581.31;5013731;28;70886;-39
2023/10/05 09:31:33;;;;;;;;;;;;;;;31.58;75.50;100584.84;5018889;28;66649;-39
2023/10/05 09:34:06;;;;;;;;;;;;;;;31.58;75.07;100574.00;5012634;28;71253;-38
2023/10/05 09:36:37;;;;;;;;;;;;;;;31.54;75.38;100578.25;5014019;28;65916;-38
2023/10/05 09:39:09;;;;;;;;;;;;;;;31.52;75.43;100580.34;5023247;28;70789;-38
2023/10/05 09:41:39;;;;;;;;;;;;;;;31.53;75.55;100573.84;5018043;28;66147;-38
2023/10/05 09:44:15;;;;;;;;;;;;;;;31.53;75.83;100571.16;5014154;28;69782;-40
2023/10/05 09:46:47;;;;;;;;;;;;;;;31.54;75.91;100575.53;5014468;28;66715;-38
2023/10/05 09:49:27;;;;;;;;;;;;;;;31.54;76.22;100586.38;4999545;28;70078;-39
2023/10/05 09:51:58;;;;;;;;;;;;;;;31.51;76.71;100594.97;5014712;28;66886;-40
2023/10/05 09:54:28;;;;;;;;;;;;;;;31.52;76.55;100602.03;5025164;28;69942;-38
2023/10/05 09:56:57;;;;;;;;;;;;;;;31.53;76.56;100598.25;5011021;28;66397;-40
2023/10/05 09:59:27;;;;;;;;;;;;;;;31.52;76.64;100599.31;5008165;28;69844;-38
2023/10/05 10:01:57;;;;;;;;;;;;;;;31.54;76.68;100593.69;5010641;28;66329;-40
2023/10/05 10:04:37;;;;;;;;;;;;;;;31.53;76.92;100587.41;4997786;28;69961;-39
2023/10/05 10:07:26;;;;;;;;;;;;;;;31.54;76.81;100599.94;5010559;28;67012;-39
2023/10/05 10:09:56;;;;;;;;;;;;;;;31.53;77.02;100592.84;5008037;28;70504;-40
2023/10/05 10:12:33;;;;;;;;;;;;;;;31.54;77.23;100604.53;5018079;28;65498;-39
2023/10/05 10:15:04;;;;;;;;;;;;;;;31.52;77.27;100602.03;5008591;28;71083;-39
2023/10/05 10:17:35;;;;;;;;;;;;;;;31.53;77.35;100624.53;5009114;28;65996;-39
2023/10/05 10:20:57;;;;;;;;;;;;;;;31.49;77.76;100624.19;5011404;28;70169;-38
2023/10/05 10:23:27;;;;;;;;;;;;;;;31.52;77.91;100640.00;5005107;28;66584;-40
2023/10/05 10:26:07;;;;;;;;;;;;;;;31.51;78.13;100659.19;5000195;28;70765;-40
2023/10/05 10:31:43;;;;;;;;;;;;;;;31.49;78.97;100654.00;5008471;28;70721;-40
2023/10/05 10:34:43;;;;;;;;;;;;;;;31.46;79.35;100640.91;5011032;28;66262;-39
2023/10/05 10:37:34;;;;;;;;;;;;;;;31.48;79.66;100648.81;5006596;28;70414;-39
2023/10/05 10:40:12;;;;;;;;;;;;;;;31.45;80.04;100650.09;5007165;28;66584;-40
2023/10/05 10:43:20;;;;;;;;;;;;;;;31.45;80.56;100650.09;5003748;28;70397;-39
2023/10/05 10:45:46;;;;;;;;;;;;;;;31.46;80.80;100668.03;5005716;28;66148;-37
2023/10/05 10:48:28;;;;;;;;;;;;;;;31.43;80.88;100678.50;5009511;28;69344;-40
2023/10/05 10:51:10;;;;;;;;;;;;;;;31.42;81.18;100699.34;5011425;28;65592;-37
2023/10/05 10:53:43;;;;;;;;;;;;;;;31.41;82.17;100697.69;5008221;28;70488;-38
2023/10/05 10:56:27;;;;;;;;;;;;;;;31.41;82.33;100692.28;4986917;28;66268;-38
2023/10/05 10:59:09;;;;;;;;;;;;;;;31.39;82.78;100688.97;5009026;28;70137;-40
2023/10/05 11:01:43;;;;;;;;;;;;;;;31.37;83.00;100691.06;5000557;28;67254;-38
2023/10/05 11:04:26;;;;;;;;;;;;;;;31.35;83.22;100701.28;5012883;28;69681;-38
2023/10/05 11:07:05;;;;;;;;;;;;;;;31.35;83.66;100701.28;5010290;28;65649;-39
2023/10/05 11:09:36;;;;;;;;;;;;;;;31.33;83.99;100712.34;5011393;28;70642;-39
2023/10/05 11:12:13;;;;;;;;;;;;;;;31.31;83.93;100714.44;5008891;28;65420;-39
2023/10/05 11:14:44;;;;;;;;;;;;;;;31.31;84.24;100713.63;5009896;28;69606;-38
2023/10/05 11:17:23;;;;;;;;;;;;;;;31.00;84.31;100679.41;5012965;28;66250;-39
2023/10/05 11:19:53;;;;;;;;;;;;;;;31.27;84.74;100723.28;5013899;28;69824;-39
2023/10/05 11:22:23;;;;;;;;;;;;;;;31.26;84.75;100727.03;5015619;28;67039;-39
2023/10/05 11:25:00;;;;;;;;;;;;;;;31.24;84.87;100740.81;5013820;28;70571;-38
2023/10/05 11:27:36;;;;;;;;;;;;;;;31.22;85.20;100755.66;5021704;28;66908;-40
2023/10/05 11:30:07;;;;;;;;;;;;;;;31.21;85.23;100767.56;5015438;28;69785;-38
2023/10/05 11:32:54;;;;;;;;;;;;;;;31.16;85.82;100755.50;5013880;28;65600;-37
2023/10/05 11:35:51;;;;;;;;;;;;;;;31.13;85.63;100760.53;5016228;28;70427;-38
2023/10/05 11:38:26;;;;;;;;;;;;;;;31.12;86.19;100775.97;5013693;28;65602;-38
2023/10/05 11:40:56;;;;;;;;;;;;;;;31.09;86.28;100776.44;5011615;28;69891;-39
2023/10/05 11:43:26;;;;;;;;;;;;;;;31.05;86.43;100790.63;5014200;28;66852;-39
2023/10/05 11:45:59;;;;;;;;;;;;;;;31.03;85.87;100793.56;5000432;28;69923;-39
2023/10/05 11:48:54;;;;;;;;;;;;;;;30.99;85.88;100781.53;5013929;28;66885;-38
2023/10/05 11:51:20;;;;;;;;;;;;;;;30.94;85.67;100773.22;4990426;28;70541;-39
2023/10/05 11:53:50;;;;;;;;;;;;;;;30.92;85.72;100775.31;5019129;28;66650;-38
2023/10/05 11:56:20;;;;;;;;;;;;;;;30.91;85.83;100785.34;5019046;28;70544;-39
2023/10/05 11:58:51;;;;;;;;;;;;;;;30.90;85.52;100793.69;5023183;28;65580;-39
2023/10/05 12:01:20;;;;;;;;;;;;;;;30.90;84.99;100804.53;5015675;28;69886;-38
2023/10/05 12:03:55;;;;;;;;;;;;;;;30.89;84.29;100808.28;5024991;28;66016;-39
2023/10/05 12:06:26;;;;;;;;;;;;;;;30.87;83.88;100813.94;5020283;28;70401;-39
2023/10/05 12:09:31;;;;;;;;;;;;;;;30.85;83.32;100812.50;5027903;28;66657;-38
2023/10/05 12:11:54;;;;;;;;;;;;;;;30.82;82.94;100813.75;5022709;28;69790;-39
2023/10/05 12:14:24;;;;;;;;;;;;;;;30.82;82.34;100802.94;5017978;28;66961;-38
2023/10/05 12:16:59;;;;;;;;;;;;;;;30.81;82.35;100813.97;5017149;28;70500;-39
2023/10/05 12:19:30;;;;;;;;;;;;;;;30.80;82.42;100825.88;5014478;28;66334;-37
2023/10/05 12:22:06;;;;;;;;;;;;;;;30.78;82.75;100833.34;5014433;28;70511;-39
2023/10/05 12:24:37;;;;;;;;;;;;;;;30.78;82.55;100839.59;5017618;28;66032;-40
2023/10/05 12:27:20;;;;;;;;;;;;;;;30.77;82.69;100842.53;5010772;28;69456;-40
2023/10/05 12:29:50;;;;;;;;;;;;;;;30.72;82.70;100846.72;5011440;28;67094;-40
2023/10/05 12:32:21;;;;;;;;;;;;;;;30.75;82.70;100845.44;5022550;28;70108;-40
2023/10/05 12:34:51;;;;;;;;;;;;;;;30.81;81.98;100843.75;5021403;28;67143;-39
2023/10/05 12:37:21;;;;;;;;;;;;;;;30.88;81.21;100845.38;5030537;28;69265;-39
2023/10/05 12:39:51;;;;;;;;;;;;;;;30.92;80.56;100829.50;5021341;28;66617;-39
2023/10/05 12:42:21;;;;;;;;;;;;;;;30.94;80.61;100824.69;5028543;28;70841;-38
2023/10/05 12:44:51;;;;;;;;;;;;;;;30.97;79.92;100820.72;5021174;28;65630;-38
2023/10/05 12:47:21;;;;;;;;;;;;;;;30.98;80.08;100823.22;5030638;28;69271;-39
2023/10/05 12:49:51;;;;;;;;;;;;;;;30.99;79.87;100824.88;5024713;28;66115;-39
2023/10/05 12:52:23;;;;;;;;;;;;;;;30.99;79.61;100830.28;5027235;28;69581;-41
2023/10/05 12:54:53;;;;;;;;;;;;;;;30.99;79.22;100841.13;5026593;28;65158;-39
2023/10/05 12:57:23;;;;;;;;;;;;;;;31.00;79.38;100836.53;5020771;28;70141;-40
2023/10/05 12:59:53;;;;;;;;;;;;;;;30.99;79.15;100841.13;5029452;28;66599;-40
2023/10/05 13:02:23;;;;;;;;;;;;;;;30.99;79.15;100846.53;5009123;28;70071;-40
2023/10/05 13:04:53;;;;;;;;;;;;;;;30.98;79.13;100839.47;5022577;28;66850;-39
2023/10/05 13:07:40;;;;;;;;;;;;;;;30.99;78.79;100845.72;5016544;28;69169;-39
2023/10/05 13:10:21;;;;;;;;;;;;;;;30.98;78.92;100847.59;5021889;28;66724;-38
2023/10/05 13:12:51;;;;;;;;;;;;;;;30.98;78.62;100850.31;5014968;28;70465;-40
2023/10/05 13:15:24;;;;;;;;;;;;;;;30.96;78.66;100852.41;5010765;28;66119;-39
2023/10/05 13:17:58;;;;;;;;;;;;;;;30.95;78.79;100850.72;5022188;28;69242;-38
2023/10/05 13:20:27;;;;;;;;;;;;;;;30.92;78.81;100856.59;5019625;28;65829;-39
2023/10/05 13:22:57;;;;;;;;;;;;;;;30.92;78.57;100860.16;5031937;28;69304;-39
2023/10/05 13:25:33;;;;;;;;;;;;;;;30.93;79.01;100859.09;5017870;28;66975;-38
2023/10/05 13:28:03;;;;;;;;;;;;;;;30.93;78.65;100863.69;5021245;28;70177;-38
2023/10/05 13:30:40;;;;;;;;;;;;;;;30.92;78.93;100867.41;5017703;28;66116;-37
2023/10/05 13:33:15;;;;;;;;;;;;;;;30.91;78.93;100877.44;5023563;28;69933;-39
2023/10/05 13:35:47;;;;;;;;;;;;;;;30.91;79.09;100887.44;5018852;28;65249;-38